Time;durP1;ratioP1;P1;durP2;ratioP2;P2;SDS_P1;SDS_P2;PMS_P1;PMS_P2;Temp;Humidity;BMP_temperature;BMP_pressure;BME280_temperature;BME280_humidity;BME280_pressure;Samples;Min_cycle;Max_cycle;Signal;HPM_P1;HPM_P2
2022/10/20 00:00:06;;;;;;;;;;;19.30;99.90;19.60;99499.00;;;;346159;28;82532;-92
2022/10/20 00:00:18;;;;;;;;;;;19.40;99.90;19.50;99499.00;;;;342815;28;90614;-92
2022/10/20 00:00:29;;;;;;;;;;;19.30;99.90;19.50;99493.00;;;;345985;28;82534;-92
2022/10/20 00:00:41;;;;;;;;;;;19.40;99.90;19.50;99491.00;;;;345636;28;90184;-92
2022/10/20 00:00:53;;;;;;;;;;;19.30;99.90;19.60;99492.00;;;;346046;28;83502;-92
2022/10/20 00:01:05;;;;;;;;;;;19.40;99.90;19.60;99493.00;;;;345568;28;91454;-92
2022/10/20 00:01:19;;;;;;;;;;;19.40;99.90;19.60;99499.00;;;;346080;28;83467;-92
2022/10/20 00:01:31;;;;;;;;;;;19.40;99.90;19.60;99503.00;;;;345578;28;91566;-92
2022/10/20 00:01:43;;;;;;;;;;;19.40;99.90;19.60;99492.00;;;;345881;28;83443;-92
2022/10/20 00:01:55;;;;;;;;;;;19.40;99.90;19.60;99499.00;;;;342734;28;93294;-92
2022/10/20 00:02:06;;;;;;;;;;;19.40;99.90;19.60;99503.00;;;;346078;28;82443;-92
2022/10/20 00:02:18;;;;;;;;;;;19.40;99.90;19.60;99498.00;;;;346698;28;90901;-92
2022/10/20 00:02:30;;;;;;;;;;;19.40;99.90;19.60;99497.00;;;;345971;28;83463;-92
2022/10/20 00:02:42;;;;;;;;;;;19.40;99.90;19.60;99495.00;;;;345726;28;90289;-92
2022/10/20 00:02:54;;;;;;;;;;;19.40;99.90;19.60;99497.00;;;;345950;28;83455;-92
2022/10/20 00:03:06;;;;;;;;;;;19.40;99.90;19.60;99497.00;;;;344187;28;91160;-92
2022/10/20 00:03:18;;;;;;;;;;;19.40;99.90;19.60;99494.00;;;;347469;28;83338;-92
2022/10/20 00:03:30;;;;;;;;;;;19.40;99.90;19.60;99498.00;;;;344250;28;91174;-92
2022/10/20 00:03:42;;;;;;;;;;;19.40;99.90;19.60;99502.00;;;;344459;28;83443;-91
2022/10/20 00:03:54;;;;;;;;;;;19.40;99.90;19.50;99504.00;;;;345424;28;93064;-92
2022/10/20 00:04:06;;;;;;;;;;;19.40;99.90;19.50;99495.00;;;;346061;28;83349;-92
2022/10/20 00:04:17;;;;;;;;;;;19.40;99.90;19.50;99483.00;;;;345433;28;90890;-92
2022/10/20 00:04:29;;;;;;;;;;;19.40;99.90;19.50;99489.00;;;;344460;28;83406;-92
2022/10/20 00:04:41;;;;;;;;;;;19.40;99.90;19.50;99492.00;;;;344409;28;90300;-91
2022/10/20 00:04:53;;;;;;;;;;;19.40;99.90;19.60;99495.00;;;;346026;28;82452;-91
2022/10/20 00:05:05;;;;;;;;;;;19.40;99.90;19.60;99496.00;;;;344162;28;92171;-91
2022/10/20 00:05:16;;;;;;;;;;;19.40;99.90;19.60;99501.00;;;;343298;28;82526;-92
2022/10/20 00:05:28;;;;;;;;;;;19.40;99.90;19.50;99500.00;;;;344243;28;91753;-92
2022/10/20 00:05:40;;;;;;;;;;;19.40;99.90;19.50;99500.00;;;;345978;28;83397;-92
2022/10/20 00:05:52;;;;;;;;;;;19.40;99.90;19.60;99496.00;;;;344101;28;92575;-91
2022/10/20 00:06:12;;;;;;;;;;;19.40;99.90;19.60;99499.00;;;;347339;28;83432;-92
2022/10/20 00:06:25;;;;;;;;;;;19.40;99.90;19.60;99500.00;;;;345532;28;90847;-91
2022/10/20 00:06:37;;;;;;;;;;;19.40;99.90;19.60;99488.00;;;;344628;28;83473;-91
2022/10/20 00:06:49;;;;;;;;;;;19.40;99.90;19.60;99493.00;;;;345539;28;92364;-91
2022/10/20 00:07:00;;;;;;;;;;;19.40;99.90;19.60;99501.00;;;;346028;28;83461;-91
2022/10/20 00:07:12;;;;;;;;;;;19.40;99.90;19.60;99496.00;;;;345467;28;92090;-91
2022/10/20 00:07:24;;;;;;;;;;;19.40;99.90;19.60;99496.00;;;;344674;28;82511;-91
2022/10/20 00:07:36;;;;;;;;;;;19.40;99.90;19.60;99493.00;;;;346868;28;90490;-91
2022/10/20 00:07:47;;;;;;;;;;;19.40;99.90;19.60;99498.00;;;;345861;28;83223;-91
2022/10/20 00:07:59;;;;;;;;;;;19.40;99.90;19.60;99499.00;;;;345634;28;91892;-92
2022/10/20 00:08:11;;;;;;;;;;;19.40;99.90;19.60;99494.00;;;;346047;28;83344;-92
2022/10/20 00:08:23;;;;;;;;;;;19.40;99.90;19.60;99497.00;;;;345528;28;91991;-91
2022/10/20 00:08:35;;;;;;;;;;;19.40;99.90;19.60;99493.00;;;;344688;28;83226;-91
2022/10/20 00:08:46;;;;;;;;;;;19.50;99.90;19.60;99497.00;;;;344244;28;90842;-92
2022/10/20 00:09:00;;;;;;;;;;;19.40;99.90;19.60;99493.00;;;;345921;28;83164;-92
2022/10/20 00:09:12;;;;;;;;;;;19.40;99.90;19.60;99501.00;;;;342849;28;90858;-91
2022/10/20 00:09:24;;;;;;;;;;;19.40;99.90;19.70;99496.00;;;;344739;28;83437;-91
2022/10/20 00:09:36;;;;;;;;;;;19.50;99.90;19.70;99498.00;;;;344188;28;91380;-91
2022/10/20 00:09:48;;;;;;;;;;;19.50;99.90;19.60;99498.00;;;;344623;28;83472;-91
2022/10/20 00:09:59;;;;;;;;;;;19.50;99.90;19.70;99502.00;;;;344182;28;92452;-91
2022/10/20 00:10:11;;;;;;;;;;;19.50;99.90;19.70;99503.00;;;;344652;28;83415;-92
2022/10/20 00:10:23;;;;;;;;;;;19.50;99.90;19.70;99502.00;;;;346643;28;92133;-92
2022/10/20 00:10:35;;;;;;;;;;;19.50;99.90;19.70;99494.00;;;;345896;28;82529;-91
2022/10/20 00:10:58;;;;;;;;;;;19.50;99.90;19.70;99487.00;;;;347083;28;91755;-91
2022/10/20 00:11:11;;;;;;;;;;;19.50;99.90;19.70;99499.00;;;;345798;28;83544;-91
2022/10/20 00:11:23;;;;;;;;;;;19.50;99.90;19.70;99489.00;;;;344189;28;91634;-91
2022/10/20 00:11:35;;;;;;;;;;;19.50;99.90;19.70;99495.00;;;;347435;28;83445;-91
2022/10/20 00:11:47;;;;;;;;;;;19.50;99.90;19.80;99496.00;;;;344174;28;91041;-92
2022/10/20 00:11:59;;;;;;;;;;;19.50;99.90;19.80;99496.00;;;;347391;28;82478;-91
2022/10/20 00:12:11;;;;;;;;;;;19.50;99.90;19.70;99493.00;;;;348270;27;92902;-91
2022/10/20 00:12:22;;;;;;;;;;;19.50;99.90;19.80;99502.00;;;;345878;28;82454;-92
2022/10/20 00:12:34;;;;;;;;;;;19.60;99.90;19.80;99495.00;;;;345662;28;87853;-91
2022/10/20 00:12:46;;;;;;;;;;;19.60;99.90;19.70;99498.00;;;;345737;28;82452;-92
2022/10/20 00:12:58;;;;;;;;;;;19.60;99.90;19.80;99502.00;;;;344137;28;90475;-91
2022/10/20 00:13:10;;;;;;;;;;;19.60;99.90;19.70;99502.00;;;;343311;28;83554;-91
2022/10/20 00:13:22;;;;;;;;;;;19.60;99.90;19.70;99501.00;;;;344183;28;91568;-91
2022/10/20 00:13:34;;;;;;;;;;;19.60;99.90;19.70;99497.00;;;;343141;28;83418;-92
2022/10/20 00:13:47;;;;;;;;;;;19.60;99.90;19.70;99492.00;;;;345648;28;91343;-91
2022/10/20 00:13:59;;;;;;;;;;;19.60;99.90;19.70;99496.00;;;;346040;28;82619;-92
2022/10/20 00:14:11;;;;;;;;;;;19.60;99.90;19.70;99503.00;;;;346934;28;92045;-92
2022/10/20 00:14:23;;;;;;;;;;;19.60;99.90;19.70;99501.00;;;;347345;28;82576;-91
2022/10/20 00:14:35;;;;;;;;;;;19.60;99.90;19.70;99494.00;;;;345690;28;90405;-91
2022/10/20 00:14:47;;;;;;;;;;;19.60;99.90;19.70;99494.00;;;;344751;28;83466;-91
2022/10/20 00:14:58;;;;;;;;;;;19.60;99.90;19.70;99503.00;;;;345576;28;90546;-91
2022/10/20 00:15:10;;;;;;;;;;;19.60;99.90;19.80;99505.00;;;;344564;28;83516;-91
2022/10/20 00:15:22;;;;;;;;;;;19.60;99.90;19.80;99494.00;;;;344209;28;90586;-92
2022/10/20 00:15:34;;;;;;;;;;;19.60;99.90;19.80;99498.00;;;;344670;28;83836;-91
2022/10/20 00:15:51;;;;;;;;;;;19.60;99.90;19.80;99495.00;;;;344190;28;91507;-91
2022/10/20 00:16:03;;;;;;;;;;;19.60;99.90;19.70;99493.00;;;;344498;28;83597;-90
2022/10/20 00:16:16;;;;;;;;;;;19.60;99.90;19.80;99495.00;;;;345452;28;91574;-91
2022/10/20 00:16:28;;;;;;;;;;;19.60;99.90;19.80;99496.00;;;;345807;28;83405;-91
2022/10/20 00:16:40;;;;;;;;;;;19.60;99.90;19.70;99489.00;;;;347036;28;90349;-91
2022/10/20 00:16:52;;;;;;;;;;;19.60;99.90;19.70;99490.00;;;;348760;27;82535;-91
2022/10/20 00:17:05;;;;;;;;;;;19.60;99.90;19.80;99495.00;;;;344106;28;90597;-92
2022/10/20 00:17:16;;;;;;;;;;;19.60;99.90;19.70;99497.00;;;;346038;28;83425;-92
2022/10/20 00:17:28;;;;;;;;;;;19.60;99.90;19.70;99493.00;;;;347032;28;90608;-91
2022/10/20 00:17:40;;;;;;;;;;;19.60;99.90;19.80;99489.00;;;;346042;28;83438;-91
2022/10/20 00:17:52;;;;;;;;;;;19.60;99.90;19.70;99493.00;;;;346982;28;90764;-92
2022/10/20 00:18:04;;;;;;;;;;;19.60;99.90;19.80;99492.00;;;;344606;28;83433;-91
2022/10/20 00:18:16;;;;;;;;;;;19.60;99.90;19.80;99494.00;;;;345411;28;91480;-91
2022/10/20 00:18:27;;;;;;;;;;;19.60;99.90;19.90;99491.00;;;;344554;28;83465;-92
2022/10/20 00:18:39;;;;;;;;;;;19.60;99.90;19.80;99487.00;;;;344189;28;91694;-91
2022/10/20 00:18:51;;;;;;;;;;;19.60;99.90;19.80;99483.00;;;;346066;28;83287;-91
2022/10/20 00:19:03;;;;;;;;;;;19.60;99.90;19.80;99488.00;;;;344134;28;90389;-92
2022/10/20 00:19:15;;;;;;;;;;;19.60;99.90;19.80;99488.00;;;;344602;28;83460;-91
2022/10/20 00:19:27;;;;;;;;;;;19.60;99.90;19.80;99487.00;;;;344268;28;91037;-91
2022/10/20 00:19:39;;;;;;;;;;;19.60;99.90;19.80;99498.00;;;;344539;28;83524;-91
2022/10/20 00:19:51;;;;;;;;;;;19.60;99.90;19.80;99486.00;;;;342816;28;91971;-91
2022/10/20 00:20:03;;;;;;;;;;;19.60;99.90;19.80;99484.00;;;;345861;28;83256;-91
2022/10/20 00:20:15;;;;;;;;;;;19.60;99.90;19.80;99489.00;;;;343921;28;92934;-91
2022/10/20 00:20:27;;;;;;;;;;;19.60;99.90;19.80;99492.00;;;;343292;28;83400;-91
2022/10/20 00:20:39;;;;;;;;;;;19.60;99.90;19.80;99488.00;;;;342750;28;92686;-91
2022/10/20 00:20:51;;;;;;;;;;;19.60;99.90;19.70;99490.00;;;;343351;28;83136;-92
2022/10/20 00:21:13;;;;;;;;;;;19.60;99.90;19.90;99493.00;;;;342772;28;91503;-92
2022/10/20 00:21:26;;;;;;;;;;;19.60;99.90;19.80;99500.00;;;;346033;28;83284;-91
2022/10/20 00:21:38;;;;;;;;;;;19.60;99.90;19.80;99490.00;;;;344167;28;90812;-91
2022/10/20 00:21:49;;;;;;;;;;;19.60;99.90;19.80;99487.00;;;;347377;28;83167;-91
2022/10/20 00:22:01;;;;;;;;;;;19.60;99.90;19.80;99492.00;;;;347015;28;90515;-91
2022/10/20 00:22:13;;;;;;;;;;;19.60;99.90;19.70;99494.00;;;;346008;28;82551;-91
2022/10/20 00:22:25;;;;;;;;;;;19.60;99.90;19.80;99494.00;;;;345527;28;92263;-90
2022/10/20 00:22:36;;;;;;;;;;;19.60;99.90;19.80;99493.00;;;;348792;27;82486;-91
2022/10/20 00:22:49;;;;;;;;;;;19.70;99.90;19.80;99494.00;;;;348437;27;90551;-91
2022/10/20 00:23:00;;;;;;;;;;;19.60;99.90;19.80;99500.00;;;;347115;28;83586;-91
2022/10/20 00:23:12;;;;;;;;;;;19.60;99.90;19.80;99494.00;;;;344002;28;91943;-92
2022/10/20 00:23:24;;;;;;;;;;;19.60;99.90;19.80;99488.00;;;;346056;28;83406;-91
2022/10/20 00:23:36;;;;;;;;;;;19.60;99.90;19.70;99495.00;;;;347005;28;91634;-91
2022/10/20 00:23:47;;;;;;;;;;;19.60;99.90;19.70;99484.00;;;;345985;28;83367;-91
2022/10/20 00:24:00;;;;;;;;;;;19.60;99.90;19.70;99491.00;;;;344216;28;91120;-92
2022/10/20 00:24:12;;;;;;;;;;;19.60;99.90;19.70;99488.00;;;;346014;28;83247;-91
2022/10/20 00:24:23;;;;;;;;;;;19.60;99.90;19.80;99496.00;;;;344072;28;91273;-92
2022/10/20 00:24:35;;;;;;;;;;;19.60;99.90;19.80;99496.00;;;;344592;28;82430;-91
2022/10/20 00:24:47;;;;;;;;;;;19.60;99.90;19.70;99493.00;;;;345613;28;91719;-92
2022/10/20 00:24:59;;;;;;;;;;;19.60;99.90;19.70;99494.00;;;;346063;28;84206;-91
2022/10/20 00:25:10;;;;;;;;;;;19.60;99.90;19.80;99499.00;;;;345463;28;91863;-92
2022/10/20 00:25:22;;;;;;;;;;;19.60;99.90;19.70;99495.00;;;;344688;28;83531;-91
2022/10/20 00:25:34;;;;;;;;;;;19.60;99.90;19.70;99491.00;;;;345504;28;91325;-91
2022/10/20 00:25:46;;;;;;;;;;;19.60;99.90;19.80;99488.00;;;;343301;28;83438;-91
2022/10/20 00:26:05;;;;;;;;;;;19.60;99.90;19.70;99495.00;;;;345246;28;90639;-92
2022/10/20 00:26:24;;;;;;;;;;;19.60;99.90;19.80;99498.00;;;;345929;28;83416;-91
2022/10/20 00:26:35;;;;;;;;;;;19.60;99.90;19.70;99494.00;;;;345558;28;91845;-92
2022/10/20 00:26:47;;;;;;;;;;;19.60;99.90;19.70;99495.00;;;;346104;28;82469;-91
2022/10/20 00:26:59;;;;;;;;;;;19.60;99.90;19.70;99492.00;;;;344125;28;91529;-91
2022/10/20 00:27:10;;;;;;;;;;;19.60;99.90;19.70;99490.00;;;;343195;28;82529;-91
2022/10/20 00:27:22;;;;;;;;;;;19.60;99.90;19.70;99498.00;;;;344163;28;91110;-91
2022/10/20 00:27:34;;;;;;;;;;;19.60;99.90;19.70;99491.00;;;;345976;28;83438;-92
2022/10/20 00:27:46;;;;;;;;;;;19.60;99.90;19.70;99493.00;;;;344155;28;90672;-92
2022/10/20 00:27:58;;;;;;;;;;;19.60;99.90;19.70;99487.00;;;;346026;28;82538;-92
2022/10/20 00:28:09;;;;;;;;;;;19.60;99.90;19.70;99482.00;;;;346939;28;90566;-92
2022/10/20 00:28:21;;;;;;;;;;;19.60;99.90;19.80;99492.00;;;;345953;28;83474;-92
2022/10/20 00:28:33;;;;;;;;;;;19.60;99.90;19.70;99487.00;;;;344146;28;90616;-92
2022/10/20 00:28:45;;;;;;;;;;;19.60;99.90;19.80;99489.00;;;;346084;28;83358;-92
2022/10/20 00:28:57;;;;;;;;;;;19.60;99.90;19.70;99490.00;;;;346914;28;92209;-92
2022/10/20 00:29:09;;;;;;;;;;;19.60;99.90;19.70;99487.00;;;;344436;28;83317;-91
2022/10/20 00:29:20;;;;;;;;;;;19.60;99.90;19.80;99491.00;;;;345478;28;91907;-91
2022/10/20 00:29:32;;;;;;;;;;;19.60;99.90;19.70;99490.00;;;;346059;28;84276;-92
2022/10/20 00:29:46;;;;;;;;;;;19.60;99.90;19.70;99494.00;;;;345587;28;90492;-91
2022/10/20 00:29:58;;;;;;;;;;;19.60;99.90;19.70;99498.00;;;;344565;28;83448;-92
2022/10/20 00:30:10;;;;;;;;;;;19.60;99.90;19.70;99498.00;;;;346960;28;91084;-92
2022/10/20 00:30:22;;;;;;;;;;;19.60;99.90;19.80;99494.00;;;;347274;28;83335;-92
2022/10/20 00:30:36;;;;;;;;;;;19.60;99.90;19.80;99494.00;;;;345518;28;91749;-91
2022/10/20 00:30:48;;;;;;;;;;;19.60;99.90;19.70;99499.00;;;;347347;28;83626;-91
2022/10/20 00:30:59;;;;;;;;;;;19.60;99.90;19.70;99501.00;;;;342712;28;92137;-91
2022/10/20 00:31:11;;;;;;;;;;;19.60;99.90;19.80;99494.00;;;;347418;28;83477;-91
2022/10/20 00:31:23;;;;;;;;;;;19.60;99.90;19.80;99497.00;;;;345522;28;91856;-91
2022/10/20 00:31:35;;;;;;;;;;;19.60;99.90;19.80;99500.00;;;;344586;28;83444;-91
2022/10/20 00:31:47;;;;;;;;;;;19.60;99.90;19.80;99491.00;;;;347051;28;90115;-91
2022/10/20 00:31:59;;;;;;;;;;;19.60;99.90;19.70;99502.00;;;;343077;28;83474;-91
2022/10/20 00:32:11;;;;;;;;;;;19.60;99.90;19.70;99497.00;;;;345628;28;91425;-91
2022/10/20 00:32:22;;;;;;;;;;;19.60;99.90;19.70;99496.00;;;;348682;27;82639;-91
2022/10/20 00:32:34;;;;;;;;;;;19.60;99.90;19.80;99495.00;;;;345471;28;92763;-91
2022/10/20 00:32:47;;;;;;;;;;;19.60;99.90;19.80;99499.00;;;;347387;28;83500;-92
2022/10/20 00:32:59;;;;;;;;;;;19.60;99.90;19.80;99509.00;;;;346908;28;92123;-92
2022/10/20 00:33:11;;;;;;;;;;;19.60;99.90;19.80;99495.00;;;;345899;28;83613;-91
2022/10/20 00:33:23;;;;;;;;;;;19.60;99.90;19.80;99498.00;;;;345577;28;91626;-91
2022/10/20 00:33:35;;;;;;;;;;;19.60;99.90;19.70;99499.00;;;;347318;28;83307;-91
2022/10/20 00:33:47;;;;;;;;;;;19.60;99.90;19.80;99493.00;;;;345562;28;91840;-91
2022/10/20 00:33:59;;;;;;;;;;;19.60;99.90;19.70;99492.00;;;;347339;28;83531;-91
2022/10/20 00:34:10;;;;;;;;;;;19.60;99.90;19.70;99497.00;;;;345294;28;91043;-91
2022/10/20 00:34:22;;;;;;;;;;;19.60;99.90;19.70;99505.00;;;;347295;28;82595;-91
2022/10/20 00:34:34;;;;;;;;;;;19.60;99.90;19.80;99496.00;;;;345520;28;92469;-92
2022/10/20 00:34:46;;;;;;;;;;;19.60;99.90;19.80;99498.00;;;;343258;28;83494;-91
2022/10/20 00:34:57;;;;;;;;;;;19.60;99.90;19.80;99497.00;;;;346927;28;91652;-91
2022/10/20 00:35:09;;;;;;;;;;;19.60;99.90;19.80;99487.00;;;;345566;28;83488;-91
2022/10/20 00:35:21;;;;;;;;;;;19.60;99.90;19.80;99499.00;;;;345537;28;90932;-92
2022/10/20 00:35:36;;;;;;;;;;;19.60;99.90;19.70;99490.00;;;;345954;28;83553;-92
2022/10/20 00:35:47;;;;;;;;;;;19.60;99.90;19.70;99494.00;;;;345632;28;90825;-92
2022/10/20 00:36:00;;;;;;;;;;;19.60;99.90;19.70;99484.00;;;;346066;28;82520;-92
2022/10/20 00:36:13;;;;;;;;;;;19.60;99.90;19.80;99492.00;;;;346698;28;90781;-92
2022/10/20 00:36:25;;;;;;;;;;;19.60;99.90;19.80;99495.00;;;;345886;28;83442;-92
2022/10/20 00:36:38;;;;;;;;;;;19.60;99.90;19.80;99487.00;;;;342725;28;93018;-92
2022/10/20 00:36:50;;;;;;;;;;;19.60;99.90;19.80;99491.00;;;;346011;28;82538;-91
2022/10/20 00:37:02;;;;;;;;;;;19.60;99.90;19.80;99483.00;;;;346947;28;90937;-92
2022/10/20 00:37:14;;;;;;;;;;;19.70;99.90;19.80;99487.00;;;;344569;28;83351;-92
2022/10/20 00:37:25;;;;;;;;;;;19.60;99.90;19.80;99490.00;;;;347024;28;90498;-92
2022/10/20 00:37:37;;;;;;;;;;;19.60;99.90;19.80;99498.00;;;;344555;28;83463;-92
2022/10/20 00:37:49;;;;;;;;;;;19.60;99.90;19.80;99493.00;;;;345588;28;90852;-92
2022/10/20 00:38:01;;;;;;;;;;;19.60;99.90;19.90;99498.00;;;;346080;28;83347;-92
2022/10/20 00:38:12;;;;;;;;;;;19.60;99.90;19.80;99488.00;;;;345540;28;91398;-92
2022/10/20 00:38:24;;;;;;;;;;;19.60;99.90;19.80;99493.00;;;;347314;28;83439;-92
2022/10/20 00:38:36;;;;;;;;;;;19.60;99.90;19.80;99495.00;;;;344094;28;92558;-92
2022/10/20 00:38:48;;;;;;;;;;;19.60;99.90;19.80;99491.00;;;;344665;28;83375;-92
2022/10/20 00:39:00;;;;;;;;;;;19.60;99.90;19.80;99493.00;;;;345583;28;90357;-92
2022/10/20 00:39:12;;;;;;;;;;;19.60;99.90;19.80;99494.00;;;;344572;28;82564;-93
2022/10/20 00:39:24;;;;;;;;;;;19.60;99.90;19.80;99491.00;;;;344018;28;91164;-92
2022/10/20 00:39:35;;;;;;;;;;;19.60;99.90;19.80;99489.00;;;;345807;28;83420;-92
2022/10/20 00:39:47;;;;;;;;;;;19.60;99.90;19.80;99490.00;;;;345521;28;90748;-92
2022/10/20 00:39:59;;;;;;;;;;;19.60;99.90;19.80;99488.00;;;;346079;28;82519;-92
2022/10/20 00:40:11;;;;;;;;;;;19.60;99.90;19.90;99485.00;;;;345534;28;91319;-92
2022/10/20 00:40:24;;;;;;;;;;;19.60;99.90;19.80;99491.00;;;;345891;28;83453;-92
2022/10/20 00:40:36;;;;;;;;;;;19.60;99.90;19.80;99479.00;;;;345531;28;92766;-91
2022/10/20 00:40:48;;;;;;;;;;;19.60;99.90;19.80;99488.00;;;;347466;28;82571;-92
2022/10/20 00:41:01;;;;;;;;;;;19.60;99.90;19.80;99484.00;;;;344251;28;90634;-92
2022/10/20 00:41:14;;;;;;;;;;;19.60;99.90;19.80;99479.00;;;;347405;28;83480;-91
2022/10/20 00:41:26;;;;;;;;;;;19.60;99.90;19.70;99481.00;;;;345559;28;90616;-91
2022/10/20 00:41:38;;;;;;;;;;;19.60;99.90;19.80;99479.00;;;;345874;28;83456;-91
2022/10/20 00:41:50;;;;;;;;;;;19.60;99.90;19.80;99475.00;;;;342676;28;91232;-92
2022/10/20 00:42:03;;;;;;;;;;;19.60;99.90;19.80;99482.00;;;;344680;28;83454;-92
2022/10/20 00:42:15;;;;;;;;;;;19.60;99.90;19.80;99481.00;;;;345510;28;91677;-92
2022/10/20 00:42:27;;;;;;;;;;;19.60;99.90;19.80;99477.00;;;;345944;28;82629;-92
2022/10/20 00:42:43;;;;;;;;;;;19.60;99.90;19.80;99481.00;;;;345590;28;92795;-92
2022/10/20 00:42:55;;;;;;;;;;;19.60;99.90;19.80;99475.00;;;;346036;28;83355;-92
2022/10/20 00:43:13;;;;;;;;;;;19.60;99.90;19.70;99478.00;;;;345477;28;91845;-92
2022/10/20 00:43:47;;;;;;;;;;;19.60;99.90;19.80;99489.00;;;;345917;28;83500;-92
2022/10/20 00:44:21;;;;;;;;;;;19.60;99.90;19.90;99486.00;;;;344151;28;90631;-92
2022/10/20 00:44:47;;;;;;;;;;;19.60;99.90;19.80;99490.00;;;;344319;28;83476;-92
2022/10/20 00:44:59;;;;;;;;;;;19.60;99.90;19.80;99482.00;;;;345531;28;91007;-92
2022/10/20 00:45:13;;;;;;;;;;;19.70;99.90;19.70;99487.00;;;;347345;28;82485;-93
2022/10/20 00:45:25;;;;;;;;;;;19.60;99.90;19.80;99490.00;;;;344132;28;90710;-92
2022/10/20 00:45:37;;;;;;;;;;;19.60;99.90;19.70;99484.00;;;;343208;28;83267;-92
2022/10/20 00:45:51;;;;;;;;;;;19.60;99.90;19.70;99488.00;;;;344127;28;92689;-91
2022/10/20 00:46:03;;;;;;;;;;;19.60;99.90;19.80;99484.00;;;;343380;28;83391;-91
2022/10/20 00:46:22;;;;;;;;;;;19.70;99.90;19.70;99487.00;;;;344073;28;92307;-92
2022/10/20 00:46:38;;;;;;;;;;;19.60;99.90;19.70;99492.00;;;;345710;28;83246;-92
2022/10/20 00:46:50;;;;;;;;;;;19.60;99.90;19.60;99489.00;;;;344154;28;91254;-92
2022/10/20 00:47:02;;;;;;;;;;;19.60;99.90;19.60;99482.00;;;;344479;28;83624;-92
2022/10/20 00:47:38;;;;;;;;;;;19.60;99.90;19.70;99483.00;;;;344082;28;90506;-92
2022/10/20 00:47:53;;;;;;;;;;;19.60;99.90;19.60;99484.00;;;;338819;28;82636;-92
2022/10/20 00:48:13;;;;;;;;;;;19.60;99.90;19.60;99487.00;;;;341775;28;89978;-92
2022/10/20 00:48:26;;;;;;;;;;;19.60;99.90;19.60;99489.00;;;;344553;28;83465;-90
2022/10/20 00:48:39;;;;;;;;;;;19.60;99.90;19.60;99487.00;;;;344119;28;93120;-91
2022/10/20 00:48:53;;;;;;;;;;;19.60;99.90;19.60;99485.00;;;;344338;28;83461;-92
2022/10/20 00:49:16;;;;;;;;;;;19.60;99.90;19.60;99486.00;;;;343965;28;90686;-92
2022/10/20 00:49:28;;;;;;;;;;;19.60;99.90;19.60;99482.00;;;;347290;28;83520;-92
2022/10/20 00:49:40;;;;;;;;;;;19.60;99.90;19.60;99488.00;;;;345478;28;92053;-92
2022/10/20 00:49:52;;;;;;;;;;;19.60;99.90;19.60;99483.00;;;;345905;28;82565;-92
2022/10/20 00:50:26;;;;;;;;;;;19.60;99.90;19.70;99497.00;;;;342864;28;91417;-92
2022/10/20 00:50:40;;;;;;;;;;;19.60;99.90;19.70;99488.00;;;;343202;28;83486;-91
2022/10/20 00:50:53;;;;;;;;;;;19.60;99.90;19.80;99496.00;;;;342784;28;91549;-92
2022/10/20 00:51:05;;;;;;;;;;;19.60;99.90;19.80;99484.00;;;;344642;28;82540;-92
2022/10/20 00:51:19;;;;;;;;;;;19.60;99.90;19.70;99485.00;;;;345354;28;91926;-92
2022/10/20 00:51:30;;;;;;;;;;;19.60;99.90;19.70;99479.00;;;;344355;28;83518;-92
2022/10/20 00:51:42;;;;;;;;;;;19.50;99.90;19.70;99475.00;;;;342747;28;91988;-92
2022/10/20 00:51:54;;;;;;;;;;;19.60;99.90;19.70;99481.00;;;;344539;28;83492;-92
2022/10/20 00:52:06;;;;;;;;;;;19.60;99.90;19.60;99480.00;;;;345504;28;90495;-92
2022/10/20 00:52:19;;;;;;;;;;;19.60;99.90;19.70;99478.00;;;;344449;28;83390;-92
2022/10/20 00:52:31;;;;;;;;;;;19.60;99.90;19.70;99481.00;;;;344134;28;90925;-92
2022/10/20 00:52:43;;;;;;;;;;;19.60;99.90;19.70;99481.00;;;;346047;28;83244;-92
2022/10/20 00:52:55;;;;;;;;;;;19.60;99.90;19.70;99482.00;;;;344146;28;91507;-92
2022/10/20 00:53:07;;;;;;;;;;;19.60;99.90;19.70;99481.00;;;;345984;28;83423;-92
2022/10/20 00:53:20;;;;;;;;;;;19.60;99.90;19.70;99486.00;;;;342991;28;92108;-92
2022/10/20 00:53:33;;;;;;;;;;;19.60;99.90;19.70;99482.00;;;;348610;27;83405;-91
2022/10/20 00:53:44;;;;;;;;;;;19.60;99.90;19.70;99484.00;;;;345532;28;92009;-92
2022/10/20 00:54:04;;;;;;;;;;;19.60;99.90;19.70;99478.00;;;;344650;28;83169;-92
2022/10/20 00:54:18;;;;;;;;;;;19.60;99.90;19.70;99481.00;;;;345416;28;92008;-92
2022/10/20 00:54:30;;;;;;;;;;;19.60;99.90;19.70;99487.00;;;;345928;28;83381;-92
2022/10/20 00:54:42;;;;;;;;;;;19.60;99.90;19.60;99485.00;;;;345337;28;91849;-92
2022/10/20 00:54:54;;;;;;;;;;;19.60;99.90;19.60;99479.00;;;;346042;28;82563;-92
2022/10/20 00:55:07;;;;;;;;;;;19.60;99.90;19.70;99479.00;;;;346939;28;91957;-92
2022/10/20 00:55:24;;;;;;;;;;;19.60;99.90;19.70;99481.00;;;;344641;28;82406;-92
2022/10/20 00:55:36;;;;;;;;;;;19.60;99.90;19.70;99491.00;;;;345333;28;91725;-92
2022/10/20 00:55:49;;;;;;;;;;;19.60;99.90;19.70;99485.00;;;;344575;28;83438;-92
2022/10/20 00:56:01;;;;;;;;;;;19.60;99.90;19.70;99485.00;;;;345548;28;92122;-92
2022/10/20 00:56:13;;;;;;;;;;;19.60;99.90;19.70;99487.00;;;;344815;28;83416;-92
2022/10/20 00:56:25;;;;;;;;;;;19.60;99.90;19.60;99483.00;;;;344448;28;90825;-92
2022/10/20 00:56:39;;;;;;;;;;;19.60;99.90;19.70;99485.00;;;;346069;28;82583;-91
2022/10/20 00:56:51;;;;;;;;;;;19.50;99.90;19.70;99487.00;;;;344219;28;91031;-92
2022/10/20 00:57:03;;;;;;;;;;;19.60;99.90;19.80;99489.00;;;;343472;28;83424;-92
2022/10/20 00:57:15;;;;;;;;;;;19.60;99.90;19.70;99485.00;;;;344513;28;88041;-93
2022/10/20 00:57:28;;;;;;;;;;;19.60;99.90;19.70;99483.00;;;;344879;28;82540;-92
2022/10/20 00:57:41;;;;;;;;;;;19.60;99.90;19.70;99485.00;;;;344212;28;92956;-92
2022/10/20 00:57:54;;;;;;;;;;;19.60;99.90;19.70;99486.00;;;;344781;28;83527;-91
2022/10/20 00:58:05;;;;;;;;;;;19.60;99.90;19.80;99480.00;;;;345805;28;91666;-92
2022/10/20 00:58:17;;;;;;;;;;;19.60;99.90;19.80;99477.00;;;;343450;28;82527;-92
2022/10/20 00:58:29;;;;;;;;;;;19.60;99.90;19.80;99479.00;;;;344413;28;90300;-92
2022/10/20 00:58:41;;;;;;;;;;;19.60;99.90;19.70;99484.00;;;;344919;28;83591;-92
2022/10/20 00:58:53;;;;;;;;;;;19.60;99.90;19.80;99484.00;;;;343057;28;89479;-92
2022/10/20 00:59:05;;;;;;;;;;;19.60;99.90;19.70;99481.00;;;;344894;28;83383;-92
2022/10/20 00:59:18;;;;;;;;;;;19.60;99.90;19.60;99482.00;;;;344352;28;91737;-92
2022/10/20 00:59:32;;;;;;;;;;;19.60;99.90;19.70;99489.00;;;;343395;28;83433;-92
2022/10/20 00:59:44;;;;;;;;;;;19.60;99.90;19.70;99481.00;;;;344076;28;92640;-92
2022/10/20 00:59:56;;;;;;;;;;;19.60;99.90;19.80;99487.00;;;;344900;28;83451;-92
2022/10/20 01:00:08;;;;;;;;;;;19.60;99.90;19.70;99479.00;;;;341705;28;90683;-92
2022/10/20 01:00:20;;;;;;;;;;;19.60;99.90;19.70;99474.00;;;;342061;28;83481;-92
2022/10/20 01:00:31;;;;;;;;;;;19.60;99.90;19.70;99483.00;;;;343095;28;91776;-92
2022/10/20 01:00:43;;;;;;;;;;;19.60;99.90;19.70;99483.00;;;;346265;28;83427;-91
2022/10/20 01:00:56;;;;;;;;;;;19.60;99.90;19.70;99479.00;;;;344398;28;91330;-92
2022/10/20 01:01:08;;;;;;;;;;;19.60;99.90;19.70;99484.00;;;;346140;28;82546;-93
2022/10/20 01:01:20;;;;;;;;;;;19.60;99.90;19.70;99479.00;;;;344404;28;92494;-92
2022/10/20 01:01:31;;;;;;;;;;;19.60;99.90;19.60;99484.00;;;;344879;28;82486;-92
2022/10/20 01:01:44;;;;;;;;;;;19.60;99.90;19.60;99490.00;;;;344179;28;92591;-92
2022/10/20 01:01:55;;;;;;;;;;;19.60;99.90;19.60;99488.00;;;;346114;28;83347;-92
2022/10/20 01:02:07;;;;;;;;;;;19.60;99.90;19.60;99486.00;;;;345854;28;90879;-92
2022/10/20 01:02:19;;;;;;;;;;;19.60;99.90;19.60;99496.00;;;;346105;28;83441;-92
2022/10/20 01:02:31;;;;;;;;;;;19.60;99.90;19.60;99497.00;;;;344164;28;91433;-92
2022/10/20 01:02:43;;;;;;;;;;;19.60;99.90;19.70;99497.00;;;;343397;28;83539;-92
2022/10/20 01:02:57;;;;;;;;;;;19.60;99.90;19.70;99492.00;;;;344353;28;90755;-92
2022/10/20 01:03:15;;;;;;;;;;;19.50;99.90;19.70;99493.00;;;;346182;28;82682;-91